Station Historical Data
Daily Summary for April 15, 2017 Units:  Both    English   Metric
« Previous Day
Next Day »
Daily Weekly Monthly Yearly Custom
  High: Low: Average:
Temperature: 72.9 °F /  22.7 °C 41.9 °F /  5.5 °C 57.2 °F /  14 °C
Dew Point: 57.3 °F /  14.1 °C 28.5 °F /  -1.9 °C 43.8 °F /  6.6 °C
Humidity: 87% 45% 61%
Wind Speed: 19.0mph /  30.6km/h - 3.3mph /  5.3km/h
Wind Gust: 26.0mph /  41.8km/h - -
Wind- - SSW
Pressure: 30.28 in /  1025.3 hPa 29.90 in /  1012.4 hPa -
Precipitation: 0.00 in /  0 mm    
Historical Graphs
 
 
Tabular Data for April 15, 2017
Time Temperature Dew Point Pressure Wind Wind Speed Wind Gust Humidity Rainfall Rate (Hourly)
00:04 48.2 °F /  9 °C 28.9 °F /  -1.7 °C 30.28in /  1025.3hPa NE 2.0mph /  3.2km/h 5.0mph /  8km/h 47% 0.00in /  0mm
00:09 48.1 °F /  8.9 °C 28.8 °F /  -1.8 °C 30.28in /  1025.3hPa NE 2.0mph /  3.2km/h 5.0mph /  8km/h 47% 0.00in /  0mm
00:14 48.0 °F /  8.9 °C 28.7 °F /  -1.8 °C 30.28in /  1025.3hPa NE 2.0mph /  3.2km/h 5.0mph /  8km/h 47% 0.00in /  0mm
00:19 47.8 °F /  8.8 °C 29.0 °F /  -1.7 °C 30.27in /  1024.9hPa Calm   4.0mph /  6.4km/h 48% 0.00in /  0mm
00:24 47.8 °F /  8.8 °C 29.0 °F /  -1.7 °C 30.27in /  1024.9hPa ENE 4.0mph /  6.4km/h 4.0mph /  6.4km/h 48% 0.00in /  0mm
00:29 47.6 °F /  8.7 °C 28.9 °F /  -1.7 °C 30.27in /  1024.9hPa ENE 4.0mph /  6.4km/h 5.0mph /  8km/h 48% 0.00in /  0mm
00:34 47.4 °F /  8.6 °C 28.7 °F /  -1.8 °C 30.27in /  1024.9hPa ENE 1.0mph /  1.6km/h 4.0mph /  6.4km/h 48% 0.00in /  0mm
00:39 47.3 °F /  8.5 °C 29.1 °F /  -1.6 °C 30.27in /  1024.9hPa East 2.0mph /  3.2km/h 5.0mph /  8km/h 49% 0.00in /  0mm
00:44 47.1 °F /  8.4 °C 28.9 °F /  -1.7 °C 30.27in /  1024.9hPa East 1.0mph /  1.6km/h 3.0mph /  4.8km/h 49% 0.00in /  0mm
00:49 47.0 °F /  8.3 °C 28.8 °F /  -1.8 °C 30.26in /  1024.6hPa East 1.0mph /  1.6km/h 3.0mph /  4.8km/h 49% 0.00in /  0mm
00:54 46.8 °F /  8.2 °C 28.6 °F /  -1.9 °C 30.26in /  1024.6hPa Calm   3.0mph /  4.8km/h 49% 0.00in /  0mm
00:59 46.6 °F /  8.1 °C 28.9 °F /  -1.7 °C 30.26in /  1024.6hPa Calm   1.0mph /  1.6km/h 50% 0.00in /  0mm
01:04 46.5 °F /  8.1 °C 28.8 °F /  -1.8 °C 30.26in /  1024.6hPa Calm     50% 0.00in /  0mm
01:09 46.2 °F /  7.9 °C 29.1 °F /  -1.6 °C 30.25in /  1024.3hPa Calm     51% 0.00in /  0mm
01:14 46.1 °F /  7.8 °C 29.0 °F /  -1.7 °C 30.25in /  1024.3hPa Calm     51% 0.00in /  0mm
01:19 46.0 °F /  7.8 °C 28.9 °F /  -1.7 °C 30.25in /  1024.3hPa Calm     51% 0.00in /  0mm
01:24 45.8 °F /  7.7 °C 28.7 °F /  -1.8 °C 30.25in /  1024.3hPa Calm     51% 0.00in /  0mm
01:29 45.7 °F /  7.6 °C 29.1 °F /  -1.6 °C 30.25in /  1024.3hPa Calm     52% 0.00in /  0mm
01:34 45.6 °F /  7.6 °C 29.0 °F /  -1.7 °C 30.25in /  1024.3hPa Calm   3.0mph /  4.8km/h 52% 0.00in /  0mm
01:39 45.5 °F /  7.5 °C 28.9 °F /  -1.7 °C 30.24in /  1023.9hPa ENE 2.0mph /  3.2km/h 3.0mph /  4.8km/h 52% 0.00in /  0mm
01:44 45.4 °F /  7.4 °C 28.8 °F /  -1.8 °C 30.24in /  1023.9hPa Calm   2.0mph /  3.2km/h 52% 0.00in /  0mm
01:49 45.3 °F /  7.4 °C 28.7 °F /  -1.8 °C 30.24in /  1023.9hPa Calm   1.0mph /  1.6km/h 52% 0.00in /  0mm
01:54 45.3 °F /  7.4 °C 28.7 °F /  -1.8 °C 30.24in /  1023.9hPa Calm   1.0mph /  1.6km/h 52% 0.00in /  0mm
02:04 45.2 °F /  7.3 °C 29.1 °F /  -1.6 °C 30.24in /  1023.9hPa ENE 1.0mph /  1.6km/h 2.0mph /  3.2km/h 53% 0.00in /  0mm
02:09 45.1 °F /  7.3 °C 29.0 °F /  -1.7 °C 30.24in /  1023.9hPa Calm   2.0mph /  3.2km/h 53% 0.00in /  0mm
02:14 45.0 °F /  7.2 °C 28.9 °F /  -1.7 °C 30.24in /  1023.9hPa ENE 1.0mph /  1.6km/h 2.0mph /  3.2km/h 53% 0.00in /  0mm
02:19 45.0 °F /  7.2 °C 28.9 °F /  -1.7 °C 30.23in /  1023.6hPa Calm   2.0mph /  3.2km/h 53% 0.00in /  0mm
02:24 44.9 °F /  7.2 °C 28.8 °F /  -1.8 °C 30.23in /  1023.6hPa Calm   2.0mph /  3.2km/h 53% 0.00in /  0mm
02:29 44.8 °F /  7.1 °C 28.7 °F /  -1.8 °C 30.23in /  1023.6hPa Calm   1.0mph /  1.6km/h 53% 0.00in /  0mm
02:34 44.7 °F /  7.1 °C 29.1 °F /  -1.6 °C 30.23in /  1023.6hPa Calm   1.0mph /  1.6km/h 54% 0.00in /  0mm
02:39 44.7 °F /  7.1 °C 29.1 °F /  -1.6 °C 30.23in /  1023.6hPa Calm     54% 0.00in /  0mm
02:44 44.6 °F /  7 °C 29.0 °F /  -1.7 °C 30.22in /  1023.2hPa Calm     54% 0.00in /  0mm
02:49 44.5 °F /  6.9 °C 29.3 °F /  -1.5 °C 30.22in /  1023.2hPa Calm     55% 0.00in /  0mm
02:54 44.5 °F /  6.9 °C 29.3 °F /  -1.5 °C 30.22in /  1023.2hPa Calm     55% 0.00in /  0mm
02:59 44.5 °F /  6.9 °C 29.3 °F /  -1.5 °C 30.22in /  1023.2hPa Calm     55% 0.00in /  0mm
03:04 44.4 °F /  6.9 °C 29.2 °F /  -1.6 °C 30.22in /  1023.2hPa Calm     55% 0.00in /  0mm
03:09 44.3 °F /  6.8 °C 29.1 °F /  -1.6 °C 30.21in /  1022.9hPa Calm     55% 0.00in /  0mm
03:14 44.3 °F /  6.8 °C 29.1 °F /  -1.6 °C 30.21in /  1022.9hPa Calm     55% 0.00in /  0mm
03:19 44.2 °F /  6.8 °C 28.6 °F /  -1.9 °C 30.21in /  1022.9hPa Calm     54% 0.00in /  0mm
03:24 44.1 °F /  6.7 °C 28.5 °F /  -1.9 °C 30.21in /  1022.9hPa Calm     54% 0.00in /  0mm
03:29 44.0 °F /  6.7 °C 28.9 °F /  -1.7 °C 30.21in /  1022.9hPa Calm     55% 0.00in /  0mm
03:34 43.8 °F /  6.6 °C 28.7 °F /  -1.8 °C 30.21in /  1022.9hPa Calm     55% 0.00in /  0mm
03:39 43.7 °F /  6.5 °C 29.0 °F /  -1.7 °C 30.21in /  1022.9hPa Calm     56% 0.00in /  0mm
03:44 43.5 °F /  6.4 °C 28.8 °F /  -1.8 °C 30.20in /  1022.6hPa Calm     56% 0.00in /  0mm
03:49 43.3 °F /  6.3 °C 28.6 °F /  -1.9 °C 30.20in /  1022.6hPa Calm     56% 0.00in /  0mm
03:54 43.1 °F /  6.2 °C 28.9 °F /  -1.7 °C 30.20in /  1022.6hPa Calm     57% 0.00in /  0mm
03:59 43.0 °F /  6.1 °C 29.2 °F /  -1.6 °C 30.20in /  1022.6hPa Calm     58% 0.00in /  0mm
04:04 42.8 °F /  6 °C 29.5 °F /  -1.4 °C 30.20in /  1022.6hPa Calm     59% 0.00in /  0mm
04:09 42.7 °F /  5.9 °C 29.4 °F /  -1.4 °C 30.20in /  1022.6hPa Calm     59% 0.00in /  0mm
04:14 42.6 °F /  5.9 °C 29.7 °F /  -1.3 °C 30.19in /  1022.2hPa Calm     60% 0.00in /  0mm
04:19 42.5 °F /  5.8 °C 29.6 °F /  -1.3 °C 30.19in /  1022.2hPa Calm     60% 0.00in /  0mm
04:24 42.5 °F /  5.8 °C 30.0 °F /  -1.1 °C 30.19in /  1022.2hPa Calm     61% 0.00in /  0mm
04:29 42.5 °F /  5.8 °C 30.0 °F /  -1.1 °C 30.19in /  1022.2hPa Calm     61% 0.00in /  0mm
04:34 42.5 °F /  5.8 °C 30.0 °F /  -1.1 °C 30.19in /  1022.2hPa Calm     61% 0.00in /  0mm
04:39 42.5 °F /  5.8 °C 30.0 °F /  -1.1 °C 30.18in /  1021.9hPa Calm     61% 0.00in /  0mm
04:44 42.5 °F /  5.8 °C 30.0 °F /  -1.1 °C 30.18in /  1021.9hPa Calm     61% 0.00in /  0mm
04:49 42.4 °F /  5.8 °C 29.9 °F /  -1.2 °C 30.18in /  1021.9hPa Calm     61% 0.00in /  0mm
04:54 42.4 °F /  5.8 °C 29.9 °F /  -1.2 °C 30.18in /  1021.9hPa Calm     61% 0.00in /  0mm
04:59 42.3 °F /  5.7 °C 29.8 °F /  -1.2 °C 30.18in /  1021.9hPa Calm     61% 0.00in /  0mm
05:04 42.2 °F /  5.7 °C 30.1 °F /  -1.1 °C 30.18in /  1021.9hPa Calm     62% 0.00in /  0mm
05:09 42.2 °F /  5.7 °C 30.1 °F /  -1.1 °C 30.17in /  1021.6hPa Calm     62% 0.00in /  0mm
05:14 42.2 °F /  5.7 °C 30.1 °F /  -1.1 °C 30.18in /  1021.9hPa Calm     62% 0.00in /  0mm
05:19 42.0 °F /  5.6 °C 29.9 °F /  -1.2 °C 30.18in /  1021.9hPa Calm     62% 0.00in /  0mm
05:24 42.0 °F /  5.6 °C 29.9 °F /  -1.2 °C 30.18in /  1021.9hPa Calm     62% 0.00in /  0mm
05:29 41.9 °F /  5.5 °C 30.2 °F /  -1 °C 30.17in /  1021.6hPa Calm     63% 0.00in /  0mm
05:34 41.9 °F /  5.5 °C 30.6 °F /  -0.8 °C 30.17in /  1021.6hPa Calm     64% 0.00in /  0mm
05:39 41.9 °F /  5.5 °C 30.6 °F /  -0.8 °C 30.17in /  1021.6hPa Calm     64% 0.00in /  0mm
05:44 41.9 °F /  5.5 °C 30.6 °F /  -0.8 °C 30.17in /  1021.6hPa Calm     64% 0.00in /  0mm
05:49 41.9 °F /  5.5 °C 31.0 °F /  -0.6 °C 30.17in /  1021.6hPa Calm     65% 0.00in /  0mm
05:54 41.9 °F /  5.5 °C 31.0 °F /  -0.6 °C 30.17in /  1021.6hPa Calm     65% 0.00in /  0mm
05:59 41.9 °F /  5.5 °C 31.0 °F /  -0.6 °C 30.17in /  1021.6hPa Calm     65% 0.00in /  0mm
06:04 41.9 °F /  5.5 °C 31.0 °F /  -0.6 °C 30.17in /  1021.6hPa Calm     65% 0.00in /  0mm
06:09 41.9 °F /  5.5 °C 31.0 °F /  -0.6 °C 30.17in /  1021.6hPa Calm     65% 0.00in /  0mm
06:14 41.9 °F /  5.5 °C 31.0 °F /  -0.6 °C 30.17in /  1021.6hPa Calm     65% 0.00in /  0mm
06:19 41.9 °F /  5.5 °C 31.0 °F /  -0.6 °C 30.17in /  1021.6hPa Calm     65% 0.00in /  0mm
06:24 42.0 °F /  5.6 °C 31.5 °F /  -0.3 °C 30.17in /  1021.6hPa Calm     66% 0.00in /  0mm
06:29 42.0 °F /  5.6 °C 31.5 °F /  -0.3 °C 30.17in /  1021.6hPa Calm     66% 0.00in /  0mm
06:34 42.0 °F /  5.6 °C 31.5 °F /  -0.3 °C 30.17in /  1021.6hPa Calm     66% 0.00in /  0mm
06:39 42.1 °F /  5.6 °C 31.6 °F /  -0.2 °C 30.17in /  1021.6hPa Calm     66% 0.00in /  0mm
06:44 42.2 °F /  5.7 °C 31.6 °F /  -0.2 °C 30.17in /  1021.6hPa Calm     66% 0.00in /  0mm
06:49 42.2 °F /  5.7 °C 31.6 °F /  -0.2 °C 30.17in /  1021.6hPa Calm     66% 0.00in /  0mm
06:54 42.2 °F /  5.7 °C 32.0 °F /  0 °C 30.17in /  1021.6hPa Calm     67% 0.00in /  0mm
06:59 42.3 °F /  5.7 °C 32.1 °F /  0.1 °C 30.17in /  1021.6hPa Calm     67% 0.00in /  0mm
07:04 42.4 °F /  5.8 °C 32.2 °F /  0.1 °C 30.17in /  1021.6hPa Calm     67% 0.00in /  0mm
07:09 42.5 °F /  5.8 °C 32.7 °F /  0.4 °C 30.17in /  1021.6hPa Calm     68% 0.00in /  0mm
07:14 42.5 °F /  5.8 °C 32.7 °F /  0.4 °C 30.17in /  1021.6hPa Calm     68% 0.00in /  0mm
07:19 42.7 °F /  5.9 °C 32.9 °F /  0.5 °C 30.17in /  1021.6hPa Calm     68% 0.00in /  0mm
07:24 42.9 °F /  6.1 °C 33.4 °F /  0.8 °C 30.17in /  1021.6hPa Calm     69% 0.00in /  0mm
07:29 43.1 °F /  6.2 °C 33.6 °F /  0.9 °C 30.17in /  1021.6hPa Calm     69% 0.00in /  0mm
07:34 43.4 °F /  6.3 °C 33.9 °F /  1.1 °C 30.17in /  1021.6hPa Calm     69% 0.00in /  0mm
07:39 43.8 °F /  6.6 °C 34.3 °F /  1.3 °C 30.17in /  1021.6hPa Calm     69% 0.00in /  0mm
07:49 44.6 °F /  7 °C 34.3 °F /  1.3 °C 30.17in /  1021.6hPa Calm     67% 0.00in /  0mm
07:54 45.2 °F /  7.3 °C 34.9 °F /  1.6 °C 30.17in /  1021.6hPa Calm     67% 0.00in /  0mm
07:59 45.7 °F /  7.6 °C 35.0 °F /  1.7 °C 30.17in /  1021.6hPa Calm     66% 0.00in /  0mm
08:04 46.4 °F /  8 °C 35.7 °F /  2.1 °C 30.17in /  1021.6hPa Calm     66% 0.00in /  0mm
08:09 47.1 °F /  8.4 °C 36.3 °F /  2.4 °C 30.16in /  1021.2hPa Calm     66% 0.00in /  0mm
08:14 47.8 °F /  8.8 °C 36.6 °F /  2.6 °C 30.16in /  1021.2hPa Calm     65% 0.00in /  0mm
08:19 48.8 °F /  9.3 °C 37.6 °F /  3.1 °C 30.16in /  1021.2hPa Calm     65% 0.00in /  0mm
08:24 49.7 °F /  9.8 °C 38.0 °F /  3.3 °C 30.16in /  1021.2hPa Calm     64% 0.00in /  0mm
08:29 50.7 °F /  10.4 °C 38.6 °F /  3.7 °C 30.16in /  1021.2hPa Calm     63% 0.00in /  0mm
08:39 53.1 °F /  11.7 °C 39.6 °F /  4.2 °C 30.15in /  1020.9hPa Calm   3.0mph /  4.8km/h 60% 0.00in /  0mm
08:44 54.7 °F /  12.6 °C 40.6 °F /  4.8 °C 30.15in /  1020.9hPa South 1.0mph /  1.6km/h 4.0mph /  6.4km/h 59% 0.00in /  0mm
08:49 55.9 °F /  13.3 °C 40.9 °F /  4.9 °C 30.14in /  1020.5hPa South 3.0mph /  4.8km/h 6.0mph /  9.7km/h 57% 0.00in /  0mm
08:54 57.1 °F /  13.9 °C 41.5 °F /  5.3 °C 30.15in /  1020.9hPa SSW 1.0mph /  1.6km/h 6.0mph /  9.7km/h 56% 0.00in /  0mm
08:59 58.3 °F /  14.6 °C 41.7 °F /  5.4 °C 30.15in /  1020.9hPa SSW 3.0mph /  4.8km/h 6.0mph /  9.7km/h 54% 0.00in /  0mm
09:04 59.3 °F /  15.2 °C 42.6 °F /  5.9 °C 30.15in /  1020.9hPa SSW 3.0mph /  4.8km/h 6.0mph /  9.7km/h 54% 0.00in /  0mm
09:09 60.1 °F /  15.6 °C 41.9 °F /  5.5 °C 30.15in /  1020.9hPa SW 3.0mph /  4.8km/h 6.0mph /  9.7km/h 51% 0.00in /  0mm
09:14 60.8 °F /  16 °C 41.5 °F /  5.3 °C 30.14in /  1020.5hPa SSW 1.0mph /  1.6km/h 6.0mph /  9.7km/h 49% 0.00in /  0mm
09:19 61.6 °F /  16.4 °C 43.3 °F /  6.3 °C 30.14in /  1020.5hPa WSW 5.0mph /  8km/h 5.0mph /  8km/h 51% 0.00in /  0mm
09:24 62.2 °F /  16.8 °C 42.8 °F /  6 °C 30.14in /  1020.5hPa SW 3.0mph /  4.8km/h 7.0mph /  11.3km/h 49% 0.00in /  0mm
09:29 62.7 °F /  17.1 °C 42.2 °F /  5.7 °C 30.14in /  1020.5hPa SSW 2.0mph /  3.2km/h 6.0mph /  9.7km/h 47% 0.00in /  0mm
09:34 63.2 °F /  17.3 °C 43.2 °F /  6.2 °C 30.13in /  1020.2hPa SSW 3.0mph /  4.8km/h 6.0mph /  9.7km/h 48% 0.00in /  0mm
09:39 63.6 °F /  17.6 °C 43.5 °F /  6.4 °C 30.13in /  1020.2hPa SW 2.0mph /  3.2km/h 6.0mph /  9.7km/h 48% 0.00in /  0mm
09:44 64.1 °F /  17.8 °C 43.4 °F /  6.3 °C 30.13in /  1020.2hPa SSW 3.0mph /  4.8km/h 5.0mph /  8km/h 47% 0.00in /  0mm
09:49 64.4 °F /  18 °C 43.7 °F /  6.5 °C 30.13in /  1020.2hPa SW 3.0mph /  4.8km/h 6.0mph /  9.7km/h 47% 0.00in /  0mm
09:54 64.8 °F /  18.2 °C 44.1 °F /  6.7 °C 30.13in /  1020.2hPa SSW 3.0mph /  4.8km/h 5.0mph /  8km/h 47% 0.00in /  0mm
09:59 65.1 °F /  18.4 °C 44.4 °F /  6.9 °C 30.13in /  1020.2hPa SSW 3.0mph /  4.8km/h 5.0mph /  8km/h 47% 0.00in /  0mm
10:04 65.5 °F /  18.6 °C 44.2 °F /  6.8 °C 30.12in /  1019.9hPa Calm   5.0mph /  8km/h 46% 0.00in /  0mm
10:09 65.8 °F /  18.8 °C 44.4 °F /  6.9 °C 30.13in /  1020.2hPa SW 3.0mph /  4.8km/h 3.0mph /  4.8km/h 46% 0.00in /  0mm
10:14 66.0 °F /  18.9 °C 44.0 °F /  6.7 °C 30.12in /  1019.9hPa WSW 2.0mph /  3.2km/h 5.0mph /  8km/h 45% 0.00in /  0mm
10:19 66.1 °F /  18.9 °C 44.7 °F /  7.1 °C 30.13in /  1020.2hPa West 1.0mph /  1.6km/h 4.0mph /  6.4km/h 46% 0.00in /  0mm
10:24 66.3 °F /  19.1 °C 45.5 °F /  7.5 °C 30.13in /  1020.2hPa WSW 3.0mph /  4.8km/h 5.0mph /  8km/h 47% 0.00in /  0mm
10:29 66.3 °F /  19.1 °C 45.5 °F /  7.5 °C 30.13in /  1020.2hPa West 2.0mph /  3.2km/h 5.0mph /  8km/h 47% 0.00in /  0mm
10:34 66.3 °F /  19.1 °C 44.9 °F /  7.2 °C 30.13in /  1020.2hPa West 3.0mph /  4.8km/h 9.0mph /  14.5km/h 46% 0.00in /  0mm
10:39 66.2 °F /  19 °C 44.8 °F /  7.1 °C 30.13in /  1020.2hPa West 4.0mph /  6.4km/h 9.0mph /  14.5km/h 46% 0.00in /  0mm
10:44 66.0 °F /  18.9 °C 44.6 °F /  7 °C 30.13in /  1020.2hPa West 3.0mph /  4.8km/h 8.0mph /  12.9km/h 46% 0.00in /  0mm
10:49 65.8 °F /  18.8 °C 44.4 °F /  6.9 °C 30.13in /  1020.2hPa West 3.0mph /  4.8km/h 7.0mph /  11.3km/h 46% 0.00in /  0mm
10:54 65.4 °F /  18.6 °C 44.1 °F /  6.7 °C 30.13in /  1020.2hPa WNW 4.0mph /  6.4km/h 4.0mph /  6.4km/h 46% 0.00in /  0mm
10:59 65.1 °F /  18.4 °C 44.4 °F /  6.9 °C 30.13in /  1020.2hPa West 4.0mph /  6.4km/h 8.0mph /  12.9km/h 47% 0.00in /  0mm
11:04 64.7 °F /  18.2 °C 45.1 °F /  7.3 °C 30.13in /  1020.2hPa West 4.0mph /  6.4km/h 8.0mph /  12.9km/h 49% 0.00in /  0mm
11:09 64.4 °F /  18 °C 45.3 °F /  7.4 °C 30.13in /  1020.2hPa West 4.0mph /  6.4km/h 8.0mph /  12.9km/h 50% 0.00in /  0mm
11:14 63.9 °F /  17.7 °C 45.4 °F /  7.4 °C 30.13in /  1020.2hPa West 2.0mph /  3.2km/h 7.0mph /  11.3km/h 51% 0.00in /  0mm
11:19 63.5 °F /  17.5 °C 47.5 °F /  8.6 °C 30.13in /  1020.2hPa Calm   4.0mph /  6.4km/h 56% 0.00in /  0mm
11:24 63.3 °F /  17.4 °C 49.2 °F /  9.6 °C 30.12in /  1019.9hPa Calm   2.0mph /  3.2km/h 60% 0.00in /  0mm
11:29 63.0 °F /  17.2 °C 48.4 °F /  9.1 °C 30.12in /  1019.9hPa Calm   3.0mph /  4.8km/h 59% 0.00in /  0mm
11:34 62.7 °F /  17.1 °C 48.6 °F /  9.2 °C 30.12in /  1019.9hPa SW 1.0mph /  1.6km/h 3.0mph /  4.8km/h 60% 0.00in /  0mm
11:39 62.5 °F /  16.9 °C 48.0 °F /  8.9 °C 30.12in /  1019.9hPa Calm   2.0mph /  3.2km/h 59% 0.00in /  0mm
11:44 62.3 °F /  16.8 °C 48.2 °F /  9 °C 30.12in /  1019.9hPa Calm   3.0mph /  4.8km/h 60% 0.00in /  0mm
11:49 62.2 °F /  16.8 °C 49.0 °F /  9.4 °C 30.11in /  1019.5hPa Calm   1.0mph /  1.6km/h 62% 0.01in /  0.25mm
11:54 62.1 °F /  16.7 °C 48.9 °F /  9.4 °C 30.11in /  1019.5hPa SSW 1.0mph /  1.6km/h 2.0mph /  3.2km/h 62% 0.01in /  0.25mm
11:59 62.0 °F /  16.7 °C 49.3 °F /  9.6 °C 30.11in /  1019.5hPa SSW 1.0mph /  1.6km/h 2.0mph /  3.2km/h 63% 0.01in /  0.25mm
12:04 61.9 °F /  16.6 °C 49.2 °F /  9.6 °C 30.11in /  1019.5hPa SSW 1.0mph /  1.6km/h 2.0mph /  3.2km/h 63% 0.01in /  0.25mm
12:09 61.8 °F /  16.6 °C 49.1 °F /  9.5 °C 30.11in /  1019.5hPa SSW 1.0mph /  1.6km/h 4.0mph /  6.4km/h 63% 0.01in /  0.25mm
12:14 61.8 °F /  16.6 °C 49.5 °F /  9.7 °C 30.11in /  1019.5hPa SSW 2.0mph /  3.2km/h 5.0mph /  8km/h 64% 0.01in /  0.25mm
12:19 61.7 °F /  16.5 °C 49.0 °F /  9.4 °C 30.11in /  1019.5hPa SW 1.0mph /  1.6km/h 5.0mph /  8km/h 63% 0.01in /  0.25mm
12:24 61.6 °F /  16.4 °C 49.3 °F /  9.6 °C 30.11in /  1019.5hPa SW 2.0mph /  3.2km/h 5.0mph /  8km/h 64% 0.01in /  0.25mm
12:29 61.4 °F /  16.3 °C 49.1 °F /  9.5 °C 30.11in /  1019.5hPa SW 3.0mph /  4.8km/h 5.0mph /  8km/h 64% 0.01in /  0.25mm
12:34 61.0 °F /  16.1 °C 49.1 °F /  9.5 °C 30.11in /  1019.5hPa SW 3.0mph /  4.8km/h 8.0mph /  12.9km/h 65% 0.02in /  0.51mm
12:39 60.7 °F /  15.9 °C 50.1 °F /  10.1 °C 30.11in /  1019.5hPa SW 1.0mph /  1.6km/h 5.0mph /  8km/h 68% 0.02in /  0.51mm
12:44 60.5 °F /  15.8 °C 50.3 °F /  10.2 °C 30.11in /  1019.5hPa South 2.0mph /  3.2km/h 3.0mph /  4.8km/h 69% 0.03in /  0.76mm
12:49 60.3 °F /  15.7 °C 50.5 °F /  10.3 °C 30.11in /  1019.5hPa SSW 4.0mph /  6.4km/h 7.0mph /  11.3km/h 70% 0.02in /  0.51mm
12:54 59.8 °F /  15.4 °C 49.6 °F /  9.8 °C 30.11in /  1019.5hPa SW 3.0mph /  4.8km/h 7.0mph /  11.3km/h 69% 0.02in /  0.51mm
12:59 59.5 °F /  15.3 °C 49.7 °F /  9.8 °C 30.11in /  1019.5hPa SSW 3.0mph /  4.8km/h 8.0mph /  12.9km/h 70% 0.02in /  0.51mm
13:04 59.2 °F /  15.1 °C 49.4 °F /  9.7 °C 30.11in /  1019.5hPa SSW 3.0mph /  4.8km/h 8.0mph /  12.9km/h 70% 0.02in /  0.51mm
13:09 59.0 °F /  15 °C 49.6 °F /  9.8 °C 30.11in /  1019.5hPa SW 3.0mph /  4.8km/h 8.0mph /  12.9km/h 71% 0.02in /  0.51mm
13:14 58.7 °F /  14.8 °C 49.7 °F /  9.8 °C 30.11in /  1019.5hPa SW 4.0mph /  6.4km/h 8.0mph /  12.9km/h 72% 0.03in /  0.76mm
13:19 58.3 °F /  14.6 °C 49.3 °F /  9.6 °C 30.11in /  1019.5hPa SW 4.0mph /  6.4km/h 7.0mph /  11.3km/h 72% 0.03in /  0.76mm
13:24 58.2 °F /  14.6 °C 49.6 °F /  9.8 °C 30.10in /  1019.2hPa South 8.0mph /  12.9km/h 9.0mph /  14.5km/h 73% 0.03in /  0.76mm
13:29 57.8 °F /  14.3 °C 49.6 °F /  9.8 °C 30.10in /  1019.2hPa SW 6.0mph /  9.7km/h 10.0mph /  16.1km/h 74% 0.03in /  0.76mm
13:34 57.6 °F /  14.2 °C 49.7 °F /  9.8 °C 30.09in /  1018.8hPa SW 5.0mph /  8km/h 10.0mph /  16.1km/h 75% 0.03in /  0.76mm
13:39 57.3 °F /  14.1 °C 49.8 °F /  9.9 °C 30.08in /  1018.5hPa SW 4.0mph /  6.4km/h 8.0mph /  12.9km/h 76% 0.03in /  0.76mm
13:44 57.1 °F /  13.9 °C 50.0 °F /  10 °C 30.07in /  1018.2hPa SSW 7.0mph /  11.3km/h 9.0mph /  14.5km/h 77% 0.02in /  0.51mm
13:49 57.0 °F /  13.9 °C 50.2 °F /  10.1 °C 30.08in /  1018.5hPa SSW 6.0mph /  9.7km/h 10.0mph /  16.1km/h 78% 0.02in /  0.51mm
13:54 56.8 °F /  13.8 °C 50.4 °F /  10.2 °C 30.07in /  1018.2hPa South 4.0mph /  6.4km/h 11.0mph /  17.7km/h 79% 0.02in /  0.51mm
13:59 56.6 °F /  13.7 °C 50.2 °F /  10.1 °C 30.08in /  1018.5hPa SSW 5.0mph /  8km/h 13.0mph /  20.9km/h 79% 0.03in /  0.76mm
14:04 56.4 °F /  13.6 °C 50.0 °F /  10 °C 30.07in /  1018.2hPa South 5.0mph /  8km/h 14.0mph /  22.5km/h 79% 0.03in /  0.76mm
14:09 56.3 °F /  13.5 °C 50.2 °F /  10.1 °C 30.07in /  1018.2hPa South 8.0mph /  12.9km/h 10.0mph /  16.1km/h 80% 0.06in /  1.52mm
14:14 56.0 °F /  13.3 °C 50.3 °F /  10.2 °C 30.06in /  1017.8hPa South 4.0mph /  6.4km/h 9.0mph /  14.5km/h 81% 0.06in /  1.52mm
14:19 56.0 °F /  13.3 °C 50.9 °F /  10.5 °C 30.05in /  1017.5hPa South 8.0mph /  12.9km/h 8.0mph /  12.9km/h 83% 0.06in /  1.52mm
14:24 56.2 °F /  13.4 °C 51.4 °F /  10.8 °C 30.04in /  1017.2hPa South 4.0mph /  6.4km/h 10.0mph /  16.1km/h 84% 0.06in /  1.52mm
14:29 56.7 °F /  13.7 °C 52.6 °F /  11.4 °C 30.04in /  1017.2hPa South 6.0mph /  9.7km/h 9.0mph /  14.5km/h 86% 0.06in /  1.52mm
14:34 57.3 °F /  14.1 °C 53.5 °F /  11.9 °C 30.03in /  1016.8hPa South 5.0mph /  8km/h 10.0mph /  16.1km/h 87% 0.05in /  1.27mm
14:39 58.2 °F /  14.6 °C 54.3 °F /  12.4 °C 30.03in /  1016.8hPa South 6.0mph /  9.7km/h 10.0mph /  16.1km/h 87% 0.05in /  1.27mm
14:44 59.0 °F /  15 °C 55.1 °F /  12.8 °C 30.03in /  1016.8hPa South 6.0mph /  9.7km/h 10.0mph /  16.1km/h 87% 0.05in /  1.27mm
14:49 59.7 °F /  15.4 °C 55.8 °F /  13.2 °C 30.03in /  1016.8hPa South 6.0mph /  9.7km/h 11.0mph /  17.7km/h 87% 0.05in /  1.27mm
14:54 62.3 °F /  16.8 °C 56.7 °F /  13.7 °C 30.02in /  1016.5hPa SSW 6.0mph /  9.7km/h 18.0mph /  29km/h 82% 0.05in /  1.27mm
14:59 63.2 °F /  17.3 °C 56.2 °F /  13.4 °C 30.02in /  1016.5hPa SSW 6.0mph /  9.7km/h 15.0mph /  24.1km/h 78% 0.04in /  1.02mm
15:04 64.5 °F /  18.1 °C 57.1 °F /  13.9 °C 30.02in /  1016.5hPa South 6.0mph /  9.7km/h 12.0mph /  19.3km/h 77% 0.04in /  1.02mm
15:09 65.1 °F /  18.4 °C 56.6 °F /  13.7 °C 30.01in /  1016.1hPa SSW 7.0mph /  11.3km/h 16.0mph /  25.7km/h 74% 0.01in /  0.25mm
15:14 65.8 °F /  18.8 °C 56.9 °F /  13.8 °C 30.01in /  1016.1hPa SSW 6.0mph /  9.7km/h 13.0mph /  20.9km/h 73% 0.00in /  0mm
15:19 65.9 °F /  18.8 °C 56.6 °F /  13.7 °C 30.00in /  1015.8hPa SE 8.0mph /  12.9km/h 17.0mph /  27.4km/h 72% 0.00in /  0mm
15:24 67.0 °F /  19.4 °C 56.9 °F /  13.8 °C 29.99in /  1015.5hPa South 10.0mph /  16.1km/h 14.0mph /  22.5km/h 70% 0.00in /  0mm
15:29 67.6 °F /  19.8 °C 56.7 °F /  13.7 °C 29.99in /  1015.5hPa SW 7.0mph /  11.3km/h 20.0mph /  32.2km/h 68% 0.00in /  0mm
15:34 68.1 °F /  20.1 °C 57.1 °F /  13.9 °C 29.99in /  1015.5hPa SSW 8.0mph /  12.9km/h 20.0mph /  32.2km/h 68% 0.00in /  0mm
15:39 68.8 °F /  20.4 °C 56.6 °F /  13.7 °C 29.98in /  1015.1hPa SSW 8.0mph /  12.9km/h 17.0mph /  27.4km/h 65% 0.00in /  0mm
15:44 69.4 °F /  20.8 °C 56.3 °F /  13.5 °C 29.98in /  1015.1hPa SSW 8.0mph /  12.9km/h 17.0mph /  27.4km/h 63% 0.00in /  0mm
15:49 69.8 °F /  21 °C 56.6 °F /  13.7 °C 29.98in /  1015.1hPa SSW 8.0mph /  12.9km/h 17.0mph /  27.4km/h 63% 0.00in /  0mm
15:54 69.9 °F /  21.1 °C 56.7 °F /  13.7 °C 29.98in /  1015.1hPa SSW 8.0mph /  12.9km/h 16.0mph /  25.7km/h 63% 0.00in /  0mm
15:59 70.6 °F /  21.4 °C 56.5 °F /  13.6 °C 29.97in /  1014.8hPa SW 8.0mph /  12.9km/h 15.0mph /  24.1km/h 61% 0.00in /  0mm
16:04 70.6 °F /  21.4 °C 56.5 °F /  13.6 °C 29.97in /  1014.8hPa SW 11.0mph /  17.7km/h 16.0mph /  25.7km/h 61% 0.00in /  0mm
16:09 70.8 °F /  21.6 °C 56.2 °F /  13.4 °C 29.96in /  1014.4hPa SSE 10.0mph /  16.1km/h 20.0mph /  32.2km/h 60% 0.00in /  0mm
16:14 71.4 °F /  21.9 °C 57.2 °F /  14 °C 29.96in /  1014.4hPa SW 5.0mph /  8km/h 14.0mph /  22.5km/h 61% 0.00in /  0mm
16:19 72.0 °F /  22.2 °C 56.4 °F /  13.6 °C 29.96in /  1014.4hPa SW 19.0mph /  30.6km/h 22.0mph /  35.4km/h 58% 0.00in /  0mm
16:24 71.9 °F /  22.2 °C 56.8 °F /  13.8 °C 29.95in /  1014.1hPa SSW 8.0mph /  12.9km/h 19.0mph /  30.6km/h 59% 0.00in /  0mm
16:29 71.9 °F /  22.2 °C 56.8 °F /  13.8 °C 29.95in /  1014.1hPa SW 10.0mph /  16.1km/h 21.0mph /  33.8km/h 59% 0.00in /  0mm
16:34 72.3 °F /  22.4 °C 56.7 °F /  13.7 °C 29.95in /  1014.1hPa SW 10.0mph /  16.1km/h 21.0mph /  33.8km/h 58% 0.00in /  0mm
16:39 72.6 °F /  22.6 °C 57.0 °F /  13.9 °C 29.95in /  1014.1hPa SW 9.0mph /  14.5km/h 19.0mph /  30.6km/h 58% 0.00in /  0mm
16:44 72.4 °F /  22.4 °C 56.8 °F /  13.8 °C 29.95in /  1014.1hPa SSW 10.0mph /  16.1km/h 20.0mph /  32.2km/h 58% 0.00in /  0mm
16:49 72.8 °F /  22.7 °C 56.7 °F /  13.7 °C 29.95in /  1014.1hPa SW 9.0mph /  14.5km/h 20.0mph /  32.2km/h 57% 0.00in /  0mm
16:54 72.9 °F /  22.7 °C 57.3 °F /  14.1 °C 29.95in /  1014.1hPa SW 11.0mph /  17.7km/h 13.0mph /  20.9km/h 58% 0.00in /  0mm
16:59 72.9 °F /  22.7 °C 56.3 °F /  13.5 °C 29.95in /  1014.1hPa SW 9.0mph /  14.5km/h 20.0mph /  32.2km/h 56% 0.00in /  0mm
17:04 72.9 °F /  22.7 °C 55.8 °F /  13.2 °C 29.95in /  1014.1hPa SW 11.0mph /  17.7km/h 22.0mph /  35.4km/h 55% 0.00in /  0mm
17:09 72.9 °F /  22.7 °C 55.8 °F /  13.2 °C 29.95in /  1014.1hPa SSW 7.0mph /  11.3km/h 21.0mph /  33.8km/h 55% 0.00in /  0mm
17:14 72.7 °F /  22.6 °C 55.6 °F /  13.1 °C 29.95in /  1014.1hPa WSW 13.0mph /  20.9km/h 21.0mph /  33.8km/h 55% 0.00in /  0mm
17:19 72.7 °F /  22.6 °C 55.1 °F /  12.8 °C 29.94in /  1013.8hPa WSW 13.0mph /  20.9km/h 21.0mph /  33.8km/h 54% 0.00in /  0mm
17:24 72.5 °F /  22.5 °C 54.9 °F /  12.7 °C 29.94in /  1013.8hPa WSW 13.0mph /  20.9km/h 24.0mph /  38.6km/h 54% 0.00in /  0mm
17:29 72.5 °F /  22.5 °C 54.9 °F /  12.7 °C 29.95in /  1014.1hPa SW 12.0mph /  19.3km/h 24.0mph /  38.6km/h 54% 0.00in /  0mm
17:34 72.2 °F /  22.3 °C 54.6 °F /  12.6 °C 29.95in /  1014.1hPa WSW 11.0mph /  17.7km/h 26.0mph /  41.8km/h 54% 0.00in /  0mm
17:39 71.6 °F /  22 °C 54.6 °F /  12.6 °C 29.94in /  1013.8hPa WSW 12.0mph /  19.3km/h 26.0mph /  41.8km/h 55% 0.00in /  0mm
17:44 71.2 °F /  21.8 °C 54.2 °F /  12.3 °C 29.94in /  1013.8hPa WNW 9.0mph /  14.5km/h 22.0mph /  35.4km/h 55% 0.00in /  0mm
17:49 70.8 °F /  21.6 °C 53.8 °F /  12.1 °C 29.94in /  1013.8hPa WSW 12.0mph /  19.3km/h 19.0mph /  30.6km/h 55% 0.00in /  0mm
17:54 70.8 °F /  21.6 °C 53.8 °F /  12.1 °C 29.94in /  1013.8hPa SSW 7.0mph /  11.3km/h 19.0mph /  30.6km/h 55% 0.00in /  0mm
17:59 70.9 °F /  21.6 °C 54.4 °F /  12.4 °C 29.94in /  1013.8hPa WSW 11.0mph /  17.7km/h 19.0mph /  30.6km/h 56% 0.00in /  0mm
18:04 70.9 °F /  21.6 °C 53.9 °F /  12.2 °C 29.94in /  1013.8hPa WSW 11.0mph /  17.7km/h 21.0mph /  33.8km/h 55% 0.00in /  0mm
18:09 70.9 °F /  21.6 °C 53.9 °F /  12.2 °C 29.94in /  1013.8hPa WSW 11.0mph /  17.7km/h 21.0mph /  33.8km/h 55% 0.00in /  0mm
18:14 70.9 °F /  21.6 °C 53.9 °F /  12.2 °C 29.94in /  1013.8hPa WSW 10.0mph /  16.1km/h 18.0mph /  29km/h 55% 0.00in /  0mm
18:19 70.8 °F /  21.6 °C 53.8 °F /  12.1 °C 29.94in /  1013.8hPa WSW 9.0mph /  14.5km/h 18.0mph /  29km/h 55% 0.00in /  0mm
18:24 70.5 °F /  21.4 °C 53.6 °F /  12 °C 29.94in /  1013.8hPa WSW 8.0mph /  12.9km/h 14.0mph /  22.5km/h 55% 0.00in /  0mm
18:29 70.1 °F /  21.2 °C 53.7 °F /  12.1 °C 29.94in /  1013.8hPa WSW 8.0mph /  12.9km/h 14.0mph /  22.5km/h 56% 0.00in /  0mm
18:34 69.5 °F /  20.8 °C 53.1 °F /  11.7 °C 29.94in /  1013.8hPa WSW 6.0mph /  9.7km/h 15.0mph /  24.1km/h 56% 0.00in /  0mm
18:39 69.2 °F /  20.7 °C 53.3 °F /  11.8 °C 29.94in /  1013.8hPa SSW 9.0mph /  14.5km/h 15.0mph /  24.1km/h 57% 0.00in /  0mm
18:44 69.1 °F /  20.6 °C 53.7 °F /  12.1 °C 29.93in /  1013.4hPa SW 7.0mph /  11.3km/h 16.0mph /  25.7km/h 58% 0.00in /  0mm
18:49 68.6 °F /  20.3 °C 52.8 °F /  11.6 °C 29.93in /  1013.4hPa SW 6.0mph /  9.7km/h 17.0mph /  27.4km/h 57% 0.00in /  0mm
18:54 67.9 °F /  19.9 °C 52.6 °F /  11.4 °C 29.93in /  1013.4hPa WSW 7.0mph /  11.3km/h 17.0mph /  27.4km/h 58% 0.00in /  0mm
18:59 67.4 °F /  19.7 °C 52.6 °F /  11.4 °C 29.93in /  1013.4hPa SW 8.0mph /  12.9km/h 17.0mph /  27.4km/h 59% 0.00in /  0mm
19:04 67.0 °F /  19.4 °C 52.7 °F /  11.5 °C 29.92in /  1013.1hPa SW 7.0mph /  11.3km/h 13.0mph /  20.9km/h 60% 0.00in /  0mm
19:09 66.8 °F /  19.3 °C 52.5 °F /  11.4 °C 29.92in /  1013.1hPa SW 7.0mph /  11.3km/h 15.0mph /  24.1km/h 60% 0.00in /  0mm
19:14 66.6 °F /  19.2 °C 52.7 °F /  11.5 °C 29.92in /  1013.1hPa SW 7.0mph /  11.3km/h 15.0mph /  24.1km/h 61% 0.00in /  0mm
19:19 66.6 °F /  19.2 °C 52.7 °F /  11.5 °C 29.92in /  1013.1hPa SW 6.0mph /  9.7km/h 15.0mph /  24.1km/h 61% 0.00in /  0mm
19:24 66.6 °F /  19.2 °C 52.7 °F /  11.5 °C 29.92in /  1013.1hPa WSW 5.0mph /  8km/h 15.0mph /  24.1km/h 61% 0.00in /  0mm
19:29 66.7 °F /  19.3 °C 52.8 °F /  11.6 °C 29.92in /  1013.1hPa SW 7.0mph /  11.3km/h 15.0mph /  24.1km/h 61% 0.00in /  0mm
19:34 66.6 °F /  19.2 °C 52.7 °F /  11.5 °C 29.92in /  1013.1hPa SW 6.0mph /  9.7km/h 8.0mph /  12.9km/h 61% 0.00in /  0mm
19:39 66.6 °F /  19.2 °C 53.2 °F /  11.8 °C 29.92in /  1013.1hPa SW 6.0mph /  9.7km/h 9.0mph /  14.5km/h 62% 0.00in /  0mm
19:44 66.6 °F /  19.2 °C 53.2 °F /  11.8 °C 29.92in /  1013.1hPa SW 5.0mph /  8km/h 9.0mph /  14.5km/h 62% 0.00in /  0mm
19:49 66.5 °F /  19.2 °C 53.1 °F /  11.7 °C 29.92in /  1013.1hPa WSW 7.0mph /  11.3km/h 11.0mph /  17.7km/h 62% 0.00in /  0mm
19:54 66.6 °F /  19.2 °C 52.7 °F /  11.5 °C 29.92in /  1013.1hPa WSW 6.0mph /  9.7km/h 14.0mph /  22.5km/h 61% 0.00in /  0mm
19:59 66.4 °F /  19.1 °C 52.5 °F /  11.4 °C 29.92in /  1013.1hPa SW 7.0mph /  11.3km/h 14.0mph /  22.5km/h 61% 0.00in /  0mm
20:04 65.8 °F /  18.8 °C 52.0 °F /  11.1 °C 29.92in /  1013.1hPa WSW 6.0mph /  9.7km/h 12.0mph /  19.3km/h 61% 0.00in /  0mm
20:09 65.0 °F /  18.3 °C 51.2 °F /  10.7 °C 29.92in /  1013.1hPa WSW 6.0mph /  9.7km/h 11.0mph /  17.7km/h 61% 0.00in /  0mm
20:14 64.3 °F /  17.9 °C 51.0 °F /  10.6 °C 29.92in /  1013.1hPa WSW 6.0mph /  9.7km/h 11.0mph /  17.7km/h 62% 0.00in /  0mm
20:19 63.7 °F /  17.6 °C 50.9 °F /  10.5 °C 29.92in /  1013.1hPa WSW 4.0mph /  6.4km/h 10.0mph /  16.1km/h 63% 0.00in /  0mm
20:24 63.2 °F /  17.3 °C 50.8 °F /  10.4 °C 29.92in /  1013.1hPa SW 5.0mph /  8km/h 9.0mph /  14.5km/h 64% 0.00in /  0mm
20:29 62.9 °F /  17.2 °C 50.5 °F /  10.3 °C 29.92in /  1013.1hPa SW 5.0mph /  8km/h 13.0mph /  20.9km/h 64% 0.00in /  0mm
20:34 62.5 °F /  16.9 °C 50.6 °F /  10.3 °C 29.92in /  1013.1hPa SW 5.0mph /  8km/h 13.0mph /  20.9km/h 65% 0.00in /  0mm
20:39 62.1 °F /  16.7 °C 50.2 °F /  10.1 °C 29.92in /  1013.1hPa SSW 4.0mph /  6.4km/h 8.0mph /  12.9km/h 65% 0.00in /  0mm
20:44 61.9 °F /  16.6 °C 50.4 °F /  10.2 °C 29.92in /  1013.1hPa SW 1.0mph /  1.6km/h 7.0mph /  11.3km/h 66% 0.00in /  0mm
20:49 61.6 °F /  16.4 °C 50.1 °F /  10.1 °C 29.92in /  1013.1hPa WSW 3.0mph /  4.8km/h 8.0mph /  12.9km/h 66% 0.00in /  0mm
20:54 61.4 °F /  16.3 °C 50.3 °F /  10.2 °C 29.92in /  1013.1hPa SW 5.0mph /  8km/h 7.0mph /  11.3km/h 67% 0.00in /  0mm
20:59 61.1 °F /  16.2 °C 50.5 °F /  10.3 °C 29.92in /  1013.1hPa SW 3.0mph /  4.8km/h 6.0mph /  9.7km/h 68% 0.00in /  0mm
21:04 61.0 °F /  16.1 °C 50.4 °F /  10.2 °C 29.92in /  1013.1hPa SW 3.0mph /  4.8km/h 6.0mph /  9.7km/h 68% 0.00in /  0mm
21:09 60.8 °F /  16 °C 50.2 °F /  10.1 °C 29.92in /  1013.1hPa SW 2.0mph /  3.2km/h 4.0mph /  6.4km/h 68% 0.00in /  0mm
21:14 60.6 °F /  15.9 °C 50.4 °F /  10.2 °C 29.92in /  1013.1hPa SW 2.0mph /  3.2km/h 5.0mph /  8km/h 69% 0.00in /  0mm
21:19 60.4 °F /  15.8 °C 50.2 °F /  10.1 °C 29.92in /  1013.1hPa SW 2.0mph /  3.2km/h 5.0mph /  8km/h 69% 0.00in /  0mm
21:24 60.2 °F /  15.7 °C 50.0 °F /  10 °C 29.92in /  1013.1hPa SW 3.0mph /  4.8km/h 4.0mph /  6.4km/h 69% 0.00in /  0mm
21:34 59.9 °F /  15.5 °C 50.1 °F /  10.1 °C 29.92in /  1013.1hPa SW 2.0mph /  3.2km/h 5.0mph /  8km/h 70% 0.00in /  0mm
21:39 59.7 °F /  15.4 °C 49.9 °F /  9.9 °C 29.92in /  1013.1hPa SW 2.0mph /  3.2km/h 5.0mph /  8km/h 70% 0.00in /  0mm
21:44 59.6 °F /  15.3 °C 50.2 °F /  10.1 °C 29.92in /  1013.1hPa SSW 2.0mph /  3.2km/h 5.0mph /  8km/h 71% 0.00in /  0mm
21:49 59.6 °F /  15.3 °C 50.2 °F /  10.1 °C 29.91in /  1012.8hPa SSW 3.0mph /  4.8km/h 4.0mph /  6.4km/h 71% 0.00in /  0mm
21:54 59.5 °F /  15.3 °C 50.1 °F /  10.1 °C 29.91in /  1012.8hPa SW 3.0mph /  4.8km/h 3.0mph /  4.8km/h 71% 0.00in /  0mm
21:59 59.4 °F /  15.2 °C 50.4 °F /  10.2 °C 29.91in /  1012.8hPa SW 1.0mph /  1.6km/h 3.0mph /  4.8km/h 72% 0.00in /  0mm
22:04 59.4 °F /  15.2 °C 50.4 °F /  10.2 °C 29.91in /  1012.8hPa SW 1.0mph /  1.6km/h 3.0mph /  4.8km/h 72% 0.00in /  0mm
22:09 59.4 °F /  15.2 °C 50.4 °F /  10.2 °C 29.91in /  1012.8hPa SW 1.0mph /  1.6km/h 3.0mph /  4.8km/h 72% 0.00in /  0mm
22:14 59.4 °F /  15.2 °C 50.7 °F /  10.4 °C 29.91in /  1012.8hPa SW 1.0mph /  1.6km/h 4.0mph /  6.4km/h 73% 0.00in /  0mm
22:19 59.4 °F /  15.2 °C 50.7 °F /  10.4 °C 29.91in /  1012.8hPa SW 1.0mph /  1.6km/h 3.0mph /  4.8km/h 73% 0.00in /  0mm
22:24 59.5 °F /  15.3 °C 51.2 °F /  10.7 °C 29.91in /  1012.8hPa SSW 2.0mph /  3.2km/h 4.0mph /  6.4km/h 74% 0.00in /  0mm
22:29 59.7 °F /  15.4 °C 51.8 °F /  11 °C 29.91in /  1012.8hPa South 4.0mph /  6.4km/h 5.0mph /  8km/h 75% 0.00in /  0mm
22:34 60.8 °F /  16 °C 53.2 °F /  11.8 °C 29.91in /  1012.8hPa SSW 3.0mph /  4.8km/h 8.0mph /  12.9km/h 76% 0.00in /  0mm
22:39 61.7 °F /  16.5 °C 53.7 °F /  12.1 °C 29.91in /  1012.8hPa SSW 4.0mph /  6.4km/h 9.0mph /  14.5km/h 75% 0.00in /  0mm
22:44 62.9 °F /  17.2 °C 53.7 °F /  12.1 °C 29.91in /  1012.8hPa SW 4.0mph /  6.4km/h 12.0mph /  19.3km/h 72% 0.00in /  0mm
22:49 64.1 °F /  17.8 °C 54.1 °F /  12.3 °C 29.91in /  1012.8hPa South 4.0mph /  6.4km/h 13.0mph /  20.9km/h 70% 0.00in /  0mm
22:54 65.2 °F /  18.4 °C 54.4 °F /  12.4 °C 29.91in /  1012.8hPa SW 4.0mph /  6.4km/h 10.0mph /  16.1km/h 68% 0.00in /  0mm
22:59 65.7 °F /  18.7 °C 54.4 °F /  12.4 °C 29.90in /  1012.4hPa WSW 3.0mph /  4.8km/h 8.0mph /  12.9km/h 67% 0.00in /  0mm
23:04 66.1 °F /  18.9 °C 54.4 °F /  12.4 °C 29.91in /  1012.8hPa SW 4.0mph /  6.4km/h 8.0mph /  12.9km/h 66% 0.00in /  0mm
23:09 66.5 °F /  19.2 °C 54.4 °F /  12.4 °C 29.91in /  1012.8hPa SW 4.0mph /  6.4km/h 9.0mph /  14.5km/h 65% 0.00in /  0mm
23:14 66.6 °F /  19.2 °C 54.5 °F /  12.5 °C 29.90in /  1012.4hPa WSW 5.0mph /  8km/h 8.0mph /  12.9km/h 65% 0.00in /  0mm
23:19 66.7 °F /  19.3 °C 54.1 °F /  12.3 °C 29.90in /  1012.4hPa SW 4.0mph /  6.4km/h 7.0mph /  11.3km/h 64% 0.00in /  0mm
23:24 66.7 °F /  19.3 °C 54.1 °F /  12.3 °C 29.91in /  1012.8hPa SW 2.0mph /  3.2km/h 8.0mph /  12.9km/h 64% 0.00in /  0mm
23:29 66.8 °F /  19.3 °C 54.2 °F /  12.3 °C 29.90in /  1012.4hPa SW 4.0mph /  6.4km/h 8.0mph /  12.9km/h 64% 0.00in /  0mm
23:34 66.8 °F /  19.3 °C 54.2 °F /  12.3 °C 29.90in /  1012.4hPa SW 4.0mph /  6.4km/h 8.0mph /  12.9km/h 64% 0.00in /  0mm
23:39 66.8 °F /  19.3 °C 54.2 °F /  12.3 °C 29.90in /  1012.4hPa SW 4.0mph /  6.4km/h 8.0mph /  12.9km/h 64% 0.00in /  0mm
23:44 66.8 °F /  19.3 °C 54.2 °F /  12.3 °C 29.90in /  1012.4hPa SW 4.0mph /  6.4km/h 8.0mph /  12.9km/h 64% 0.00in /  0mm
23:49 66.7 °F /  19.3 °C 54.1 °F /  12.3 °C 29.90in /  1012.4hPa SW 3.0mph /  4.8km/h 8.0mph /  12.9km/h 64% 0.00in /  0mm
23:59 66.7 °F /  19.3 °C 54.1 °F /  12.3 °C 29.90in /  1012.4hPa SW 3.0mph /  4.8km/h 8.0mph /  12.9km/h 64% 0.00in /  0mm
Buffalo, New York, USA
Compliments of Weather Underground - 2.5 mb